createdAt,value
2023-05-05T00:00:35.189Z,16.40
2023-05-05T00:03:03.632Z,16.20
2023-05-05T00:05:32.333Z,16.00
2023-05-05T00:08:02.415Z,15.80
2023-05-05T00:10:30.778Z,15.80
2023-05-05T00:12:59.115Z,15.60
2023-05-05T00:15:27.641Z,15.60
2023-05-05T00:17:56.168Z,15.50
2023-05-05T00:20:24.978Z,15.40
2023-05-05T00:22:53.237Z,15.50
2023-05-05T00:25:23.058Z,15.40
2023-05-05T00:27:51.667Z,15.40
2023-05-05T00:30:20.169Z,15.30
2023-05-05T00:32:49.645Z,15.30
2023-05-05T00:35:18.336Z,15.30
2023-05-05T00:37:46.899Z,15.20
2023-05-05T00:40:15.980Z,15.20
2023-05-05T00:42:47.397Z,15.10
2023-05-05T00:45:16.793Z,15.00
2023-05-05T00:47:47.379Z,15.00
2023-05-05T00:50:24.765Z,15.10
2023-05-05T00:52:56.369Z,15.00
2023-05-05T00:55:24.770Z,14.90
2023-05-05T00:57:54.672Z,14.90
2023-05-05T01:00:23.463Z,14.90
2023-05-05T01:02:52.629Z,14.90
2023-05-05T01:05:22.534Z,15.00
2023-05-05T01:08:03.806Z,14.90
2023-05-05T01:10:39.363Z,14.90
2023-05-05T01:13:21.258Z,14.80
2023-05-05T01:15:55.763Z,14.90
2023-05-05T01:18:33.237Z,14.90
2023-05-05T01:21:07.706Z,14.90
2023-05-05T01:24:00.609Z,14.90
2023-05-05T01:26:56.644Z,14.80
2023-05-05T01:29:51.477Z,14.70
2023-05-05T01:32:26.674Z,14.70
2023-05-05T01:34:59.553Z,14.70
2023-05-05T01:37:31.750Z,14.70
2023-05-05T01:40:07.097Z,14.70
2023-05-05T01:42:37.572Z,14.60
2023-05-05T01:45:09.377Z,14.60
2023-05-05T01:47:40.484Z,14.50
2023-05-05T01:50:11.358Z,14.60
2023-05-05T01:52:41.164Z,14.70
2023-05-05T01:55:12.313Z,14.70
2023-05-05T01:57:42.523Z,14.70
2023-05-05T02:00:12.447Z,14.60
2023-05-05T02:02:43.834Z,14.60
2023-05-05T02:05:13.763Z,14.60
2023-05-05T02:07:42.460Z,14.60
2023-05-05T02:10:13.497Z,14.60
2023-05-05T02:12:43.727Z,14.60
2023-05-05T02:15:13.963Z,14.70
2023-05-05T02:17:44.585Z,14.80
2023-05-05T02:20:15.804Z,14.70
2023-05-05T02:22:44.643Z,14.50
2023-05-05T02:25:13.251Z,14.50
2023-05-05T02:27:44.752Z,14.50
2023-05-05T02:30:15.796Z,14.40
2023-05-05T02:32:50.870Z,14.30
2023-05-05T02:35:23.573Z,14.30
2023-05-05T02:37:59.642Z,14.20
2023-05-05T02:40:32.328Z,14.20
2023-05-05T02:43:04.932Z,14.40
2023-05-05T02:45:33.700Z,14.30
2023-05-05T02:48:05.393Z,14.20
2023-05-05T02:50:34.290Z,14.20
2023-05-05T02:53:02.908Z,14.10
2023-05-05T02:55:38.838Z,14.00
2023-05-05T02:58:11.462Z,14.00
2023-05-05T03:00:48.360Z,13.90
2023-05-05T03:03:25.970Z,14.00
2023-05-05T03:06:08.729Z,14.10
2023-05-05T03:08:43.794Z,14.10
2023-05-05T03:11:19.590Z,14.10
2023-05-05T03:13:51.611Z,14.10
2023-05-05T03:16:20.952Z,14.20
2023-05-05T03:18:52.883Z,14.20
2023-05-05T03:21:22.000Z,14.20
2023-05-05T03:23:50.444Z,14.10
2023-05-05T03:26:19.494Z,14.10
2023-05-05T03:28:48.389Z,14.00
2023-05-05T03:31:16.953Z,14.00
2023-05-05T03:33:45.455Z,14.10
2023-05-05T03:36:15.218Z,14.10
2023-05-05T03:38:43.923Z,14.00
2023-05-05T03:41:12.626Z,14.10
2023-05-05T03:43:41.406Z,14.10
2023-05-05T03:46:10.362Z,14.00
2023-05-05T03:48:38.799Z,14.00
2023-05-05T03:51:07.630Z,14.10
2023-05-05T03:53:37.405Z,14.00
2023-05-05T03:56:06.153Z,14.10
2023-05-05T03:58:34.987Z,14.10
2023-05-05T04:01:03.943Z,14.10
2023-05-05T04:03:32.477Z,14.10
2023-05-05T04:06:01.291Z,14.10
2023-05-05T04:08:29.688Z,14.10
2023-05-05T04:10:59.512Z,14.00
2023-05-05T04:13:27.914Z,14.00
2023-05-05T04:15:56.657Z,13.90
2023-05-05T04:18:25.454Z,14.00
2023-05-05T04:20:53.799Z,13.90
2023-05-05T04:23:22.296Z,13.90
2023-05-05T04:25:50.827Z,13.90
2023-05-05T04:28:21.758Z,13.90
2023-05-05T04:30:50.632Z,13.80
2023-05-05T04:33:19.031Z,13.90
2023-05-05T04:35:47.427Z,13.90
2023-05-05T04:38:16.263Z,14.00
2023-05-05T04:40:44.880Z,14.00
2023-05-05T04:43:13.118Z,14.00
2023-05-05T04:45:42.745Z,14.00
2023-05-05T04:48:11.149Z,14.10
2023-05-05T04:50:39.580Z,14.20
2023-05-05T04:53:08.063Z,14.40
2023-05-05T04:55:36.552Z,14.30
2023-05-05T04:58:05.148Z,14.20
2023-05-05T05:00:33.816Z,14.10
2023-05-05T05:03:03.587Z,14.10
2023-05-05T05:05:32.179Z,14.10
2023-05-05T05:08:00.585Z,14.20
2023-05-05T05:10:29.559Z,14.20
2023-05-05T05:12:58.003Z,14.10
2023-05-05T05:15:26.519Z,14.20
2023-05-05T05:17:54.935Z,14.20
2023-05-05T05:20:25.078Z,14.40
2023-05-05T05:22:53.540Z,14.40
2023-05-05T05:25:21.912Z,14.30
2023-05-05T05:28:02.298Z,14.30
2023-05-05T05:30:37.142Z,14.30
2023-05-05T05:33:05.968Z,14.30
2023-05-05T05:35:35.652Z,14.20
2023-05-05T05:38:04.373Z,14.20
2023-05-05T05:40:32.736Z,14.20
2023-05-05T05:43:01.153Z,14.20
2023-05-05T05:45:29.564Z,14.20
2023-05-05T05:47:58.180Z,14.30
2023-05-05T05:50:28.673Z,14.30
2023-05-05T05:52:58.424Z,14.30
2023-05-05T05:55:26.826Z,14.40
2023-05-05T05:57:55.224Z,14.50
2023-05-05T06:00:23.971Z,14.60
2023-05-05T06:02:52.489Z,14.60
2023-05-05T06:05:20.998Z,14.70
2023-05-05T06:07:49.487Z,14.80
2023-05-05T06:10:27.864Z,14.70
2023-05-05T06:12:56.856Z,14.70
2023-05-05T06:15:25.889Z,14.70
2023-05-05T06:17:54.809Z,14.70
2023-05-05T06:20:23.719Z,14.70
2023-05-05T06:22:52.230Z,14.80
2023-05-05T06:25:22.077Z,14.80
2023-05-05T06:27:50.688Z,14.80
2023-05-05T06:30:19.129Z,14.90
2023-05-05T06:32:47.574Z,14.90
2023-05-05T06:35:16.196Z,15.00
2023-05-05T06:37:45.193Z,15.00
2023-05-05T06:40:14.471Z,15.00
2023-05-05T06:42:44.205Z,15.10
2023-05-05T06:45:13.614Z,15.00
2023-05-05T06:47:42.795Z,15.00
2023-05-05T06:50:11.546Z,15.10
2023-05-05T06:52:40.015Z,15.10
2023-05-05T06:55:08.938Z,15.20
2023-05-05T06:57:37.422Z,15.20
2023-05-05T07:00:11.219Z,15.20
2023-05-05T07:02:40.042Z,15.20
2023-05-05T07:05:08.976Z,15.30
2023-05-05T07:07:37.515Z,15.30
2023-05-05T07:10:06.420Z,15.40
2023-05-05T07:12:35.021Z,15.50
2023-05-05T07:15:12.276Z,15.50
2023-05-05T07:17:49.109Z,15.50
2023-05-05T07:20:17.794Z,15.60
2023-05-05T07:22:46.345Z,15.70
2023-05-05T07:25:14.840Z,16.00
2023-05-05T07:27:43.443Z,16.00
2023-05-05T07:30:16.304Z,16.10
2023-05-05T07:32:47.114Z,16.10
2023-05-05T07:35:16.981Z,16.40
2023-05-05T07:37:46.139Z,16.30
2023-05-05T07:40:14.861Z,16.40
2023-05-05T07:42:43.193Z,16.50
2023-05-05T07:45:12.147Z,16.50
2023-05-05T07:47:40.872Z,16.70
2023-05-05T07:50:10.040Z,16.60
2023-05-05T07:55:11.397Z,17.20
2023-05-05T07:57:39.848Z,17.50
2023-05-05T08:00:09.563Z,17.40
2023-05-05T08:02:38.380Z,17.30
2023-05-05T08:05:07.609Z,17.30
2023-05-05T08:07:41.102Z,17.10
2023-05-05T08:10:12.232Z,17.00
2023-05-05T08:12:41.475Z,16.90
2023-05-05T08:15:10.889Z,16.90
2023-05-05T08:17:47.502Z,17.00
2023-05-05T08:20:16.509Z,17.20
2023-05-05T08:22:45.526Z,17.20
2023-05-05T08:25:15.953Z,17.00
2023-05-05T08:27:44.532Z,16.80
2023-05-05T08:30:13.553Z,16.90
2023-05-05T08:32:42.378Z,17.10
2023-05-05T08:35:12.189Z,17.40
2023-05-05T08:37:40.798Z,17.40
2023-05-05T08:40:12.905Z,17.70
2023-05-05T08:42:44.594Z,17.90
2023-05-05T08:45:13.327Z,17.80
2023-05-05T08:47:43.411Z,17.90
2023-05-05T08:50:12.860Z,18.20
2023-05-05T08:52:44.325Z,18.30
2023-05-05T08:55:19.106Z,18.30
2023-05-05T08:57:53.422Z,18.30
2023-05-05T09:00:22.766Z,18.30
2023-05-05T09:02:51.887Z,18.00
2023-05-05T09:05:20.641Z,18.20
2023-05-05T09:07:49.099Z,18.60
2023-05-05T09:10:17.508Z,18.30
2023-05-05T09:12:46.244Z,18.40
2023-05-05T09:15:16.402Z,18.40
2023-05-05T09:17:45.057Z,18.20
2023-05-05T09:20:15.130Z,18.30
2023-05-05T09:22:44.484Z,18.40
2023-05-05T09:25:13.879Z,18.20
2023-05-05T09:27:45.855Z,18.40
2023-05-05T09:30:17.224Z,18.90
2023-05-05T09:32:49.524Z,18.60
2023-05-05T09:35:18.368Z,18.50
2023-05-05T09:37:47.037Z,18.70
2023-05-05T09:40:18.443Z,18.90
2023-05-05T09:42:47.369Z,19.00
2023-05-05T09:45:29.337Z,18.90
2023-05-05T09:48:00.411Z,18.30
2023-05-05T09:50:32.772Z,18.30
2023-05-05T09:53:02.260Z,18.30
2023-05-05T09:55:31.501Z,18.40
2023-05-05T09:58:19.770Z,18.50
2023-05-05T10:00:49.621Z,18.90
2023-05-05T10:03:18.021Z,19.00
2023-05-05T10:05:54.254Z,19.00
2023-05-05T10:08:24.026Z,19.10
2023-05-05T10:10:54.042Z,19.10
2023-05-05T10:13:23.881Z,19.20
2023-05-05T10:15:55.123Z,19.40
2023-05-05T10:18:25.136Z,19.60
2023-05-05T10:20:59.324Z,18.70
2023-05-05T10:23:34.407Z,18.40
2023-05-05T10:26:04.436Z,18.30
2023-05-05T10:28:38.393Z,18.60
2023-05-05T10:31:24.453Z,19.00
2023-05-05T10:33:58.944Z,19.40
2023-05-05T10:36:28.040Z,19.60
2023-05-05T10:38:58.088Z,19.50
2023-05-05T10:41:27.334Z,19.70
2023-05-05T10:43:58.368Z,19.80
2023-05-05T10:46:29.244Z,19.80
2023-05-05T10:49:06.247Z,19.70
2023-05-05T10:51:51.146Z,19.80
2023-05-05T10:54:25.843Z,19.90
2023-05-05T10:56:54.442Z,19.70
2023-05-05T10:59:43.038Z,19.40
2023-05-05T11:02:23.923Z,19.60
2023-05-05T11:05:12.360Z,19.50
2023-05-05T11:07:41.868Z,19.40
2023-05-05T11:10:11.799Z,18.80
2023-05-05T11:13:20.117Z,18.90
2023-05-05T11:15:49.296Z,19.30
2023-05-05T11:18:37.436Z,19.40
2023-05-05T11:21:16.757Z,19.20
2023-05-05T11:23:46.621Z,19.50
2023-05-05T11:26:16.270Z,19.80
2023-05-05T11:29:02.473Z,19.90
2023-05-05T11:31:31.791Z,20.00
2023-05-05T11:34:29.434Z,20.20
2023-05-05T11:37:01.025Z,19.90
2023-05-05T11:39:49.835Z,20.00
2023-05-05T11:42:26.866Z,19.90
2023-05-05T11:44:55.699Z,19.90
2023-05-05T11:47:33.479Z,19.80
2023-05-05T11:50:23.617Z,19.40
2023-05-05T11:52:52.056Z,19.50
2023-05-05T11:55:24.080Z,19.40
2023-05-05T11:57:52.787Z,19.20
2023-05-05T12:00:21.888Z,18.90
2023-05-05T12:02:58.765Z,18.80
2023-05-05T12:05:28.409Z,18.90
2023-05-05T12:08:00.200Z,18.90
2023-05-05T12:10:29.331Z,19.00
2023-05-05T12:12:58.239Z,19.00
2023-05-05T12:15:33.319Z,19.00
2023-05-05T12:18:02.992Z,19.00
2023-05-05T12:20:35.140Z,18.80
2023-05-05T12:23:04.846Z,19.00
2023-05-05T12:25:40.782Z,19.20
2023-05-05T12:28:09.920Z,19.40
2023-05-05T12:30:38.465Z,19.70
2023-05-05T12:33:08.372Z,20.10
2023-05-05T12:35:38.305Z,19.80
2023-05-05T12:38:07.515Z,20.10
2023-05-05T12:40:47.101Z,20.20
2023-05-05T12:43:31.224Z,20.50
2023-05-05T12:46:07.320Z,20.40
2023-05-05T12:48:37.852Z,20.20
2023-05-05T12:51:14.893Z,19.50
2023-05-05T12:53:43.844Z,18.80
2023-05-05T12:56:34.376Z,18.50
2023-05-05T12:59:03.459Z,18.30
2023-05-05T13:01:31.940Z,18.10
2023-05-05T13:04:11.857Z,18.20
2023-05-05T13:06:42.682Z,17.90
2023-05-05T13:09:23.122Z,18.00
2023-05-05T13:11:51.699Z,17.90
2023-05-05T13:14:20.312Z,17.60
2023-05-05T13:16:48.994Z,17.70
2023-05-05T13:19:17.743Z,17.60
2023-05-05T13:21:47.321Z,17.50
2023-05-05T13:26:47.146Z,17.70
2023-05-05T13:29:16.530Z,17.40
2023-05-05T13:31:45.185Z,17.30
2023-05-05T13:34:13.738Z,17.50
2023-05-05T13:36:42.207Z,17.30
2023-05-05T13:39:12.717Z,17.40
2023-05-05T13:41:41.440Z,17.40
2023-05-05T13:44:09.888Z,17.40
2023-05-05T13:46:38.484Z,17.50
2023-05-05T13:49:07.035Z,17.60
2023-05-05T13:51:35.736Z,17.70
2023-05-05T13:54:04.153Z,17.70
2023-05-05T13:56:33.957Z,17.70
2023-05-05T13:59:02.710Z,18.20
2023-05-05T14:01:31.326Z,18.60
2023-05-05T14:04:01.407Z,19.00
2023-05-05T14:06:32.732Z,18.70
2023-05-05T14:09:01.407Z,18.70
2023-05-05T14:11:31.590Z,18.60
2023-05-05T14:14:01.815Z,18.70
2023-05-05T14:16:30.471Z,18.80
2023-05-05T14:18:59.178Z,18.60
2023-05-05T14:21:27.729Z,18.50
2023-05-05T14:23:56.171Z,18.30
2023-05-05T14:26:24.595Z,18.50
2023-05-05T14:28:53.029Z,18.20
2023-05-05T14:31:22.666Z,18.70
2023-05-05T14:33:51.291Z,18.60
2023-05-05T14:36:20.024Z,19.10
2023-05-05T14:38:48.519Z,18.60
2023-05-05T14:41:17.176Z,19.00
2023-05-05T14:43:45.740Z,18.40
2023-05-05T14:46:14.401Z,18.50
2023-05-05T14:48:44.322Z,18.40
2023-05-05T14:51:12.916Z,19.10
2023-05-05T14:53:41.377Z,18.60
2023-05-05T14:56:10.037Z,18.50
2023-05-05T14:58:38.505Z,19.30
2023-05-05T15:01:07.002Z,18.90
2023-05-05T15:03:35.599Z,18.60
2023-05-05T15:06:05.912Z,18.40
2023-05-05T15:08:34.499Z,18.40
2023-05-05T15:11:02.901Z,18.20
2023-05-05T15:13:31.387Z,18.20
2023-05-05T15:15:59.950Z,18.00
2023-05-05T15:18:28.676Z,18.10
2023-05-05T15:20:57.168Z,18.40
2023-05-05T15:23:26.739Z,18.20
2023-05-05T15:25:55.510Z,18.20
2023-05-05T15:28:24.330Z,18.20
2023-05-05T15:30:52.797Z,18.20
2023-05-05T15:33:21.323Z,18.20
2023-05-05T15:35:49.922Z,18.20
2023-05-05T15:38:18.736Z,18.20
2023-05-05T15:40:50.165Z,18.30
2023-05-05T15:43:18.706Z,18.70
2023-05-05T15:45:47.120Z,18.60
2023-05-05T15:48:15.456Z,18.70
2023-05-05T15:50:44.142Z,18.50
2023-05-05T15:53:12.588Z,18.60
2023-05-05T15:55:41.046Z,18.90
2023-05-05T15:58:11.021Z,19.40
2023-05-05T16:00:40.610Z,19.10
2023-05-05T16:03:09.094Z,18.80
2023-05-05T16:05:37.731Z,18.60
2023-05-05T16:08:10.103Z,18.90
2023-05-05T16:10:38.628Z,18.80
2023-05-05T16:13:07.337Z,18.60
2023-05-05T16:15:37.299Z,18.40
2023-05-05T16:18:05.974Z,18.50
2023-05-05T16:20:34.240Z,18.60
2023-05-05T16:23:02.772Z,18.90
2023-05-05T16:25:31.338Z,19.00
2023-05-05T16:28:00.265Z,19.30
2023-05-05T16:30:29.264Z,19.50
2023-05-05T16:32:59.251Z,19.40
2023-05-05T16:35:27.859Z,19.30
2023-05-05T16:37:56.305Z,19.20
2023-05-05T16:40:24.833Z,19.30
2023-05-05T16:42:53.273Z,19.30
2023-05-05T16:45:21.671Z,19.10
2023-05-05T16:47:49.976Z,19.10
2023-05-05T16:50:19.759Z,19.30
2023-05-05T16:52:48.201Z,19.10
2023-05-05T16:55:16.757Z,18.90
2023-05-05T16:57:45.238Z,18.80
2023-05-05T17:00:14.882Z,18.70
2023-05-05T17:02:43.382Z,18.70
2023-05-05T17:05:12.065Z,18.60
2023-05-05T17:07:41.987Z,18.60
2023-05-05T17:10:11.130Z,18.80
2023-05-05T17:12:39.693Z,18.80
2023-05-05T17:15:09.188Z,18.90
2023-05-05T17:17:38.073Z,19.40
2023-05-05T17:20:07.719Z,19.50
2023-05-05T17:22:36.290Z,19.50
2023-05-05T17:25:06.583Z,19.50
2023-05-05T17:27:35.111Z,19.60
2023-05-05T17:30:03.545Z,19.60
2023-05-05T17:32:31.978Z,19.70
2023-05-05T17:35:00.482Z,19.70
2023-05-05T17:37:29.343Z,19.80
2023-05-05T17:39:58.050Z,20.20
2023-05-05T17:42:30.249Z,20.20
2023-05-05T17:44:58.809Z,20.20
2023-05-05T17:47:27.251Z,20.00
2023-05-05T17:49:57.912Z,20.00
2023-05-05T17:52:27.813Z,20.10
2023-05-05T17:54:56.306Z,20.30
2023-05-05T17:57:24.702Z,20.20
2023-05-05T17:59:54.622Z,20.20
2023-05-05T18:02:24.083Z,20.10
2023-05-05T18:04:52.683Z,20.10
2023-05-05T18:07:21.154Z,20.00
2023-05-05T18:09:49.546Z,19.90
2023-05-05T18:12:17.926Z,19.90
2023-05-05T18:14:46.491Z,19.80
2023-05-05T18:17:16.136Z,19.70
2023-05-05T18:19:46.616Z,19.70
2023-05-05T18:22:17.066Z,19.70
2023-05-05T18:24:47.362Z,19.60
2023-05-05T18:27:15.880Z,19.60
2023-05-05T18:29:44.376Z,19.60
2023-05-05T18:32:12.820Z,19.50
2023-05-05T18:34:42.529Z,19.50
2023-05-05T18:37:11.174Z,19.40
2023-05-05T18:39:40.574Z,19.40
2023-05-05T18:42:09.883Z,19.40
2023-05-05T18:44:38.282Z,19.40
2023-05-05T18:47:06.857Z,19.30
2023-05-05T18:49:35.395Z,19.20
2023-05-05T18:52:05.359Z,19.20
2023-05-05T18:54:35.142Z,19.20
2023-05-05T18:57:05.645Z,19.20
2023-05-05T18:59:34.354Z,19.10
2023-05-05T19:02:02.912Z,19.00
2023-05-05T19:04:32.273Z,19.10
2023-05-05T19:07:00.959Z,18.90
2023-05-05T19:09:30.684Z,19.00
2023-05-05T19:11:59.198Z,18.90
2023-05-05T19:14:27.605Z,18.90
2023-05-05T19:16:56.435Z,18.80
2023-05-05T19:19:28.301Z,18.70
2023-05-05T19:21:57.121Z,18.60
2023-05-05T19:24:25.752Z,18.50
2023-05-05T19:26:55.370Z,18.40
2023-05-05T19:29:23.817Z,18.20
2023-05-05T19:31:52.273Z,18.10
2023-05-05T19:34:21.754Z,18.10
2023-05-05T19:36:50.152Z,17.90
2023-05-05T19:39:18.624Z,17.80
2023-05-05T19:41:47.407Z,17.80
2023-05-05T19:44:17.732Z,17.70
2023-05-05T19:46:46.277Z,17.70
2023-05-05T19:49:14.753Z,17.70
2023-05-05T19:51:43.844Z,17.70
2023-05-05T19:54:12.369Z,17.50
2023-05-05T19:56:40.810Z,17.50
2023-05-05T19:59:09.370Z,17.40
2023-05-05T20:01:39.378Z,17.30
2023-05-05T20:04:07.985Z,17.20
2023-05-05T20:06:37.561Z,17.20
2023-05-05T20:09:06.322Z,17.20
2023-05-05T20:11:35.681Z,17.10
2023-05-05T20:14:04.204Z,17.10
2023-05-05T20:16:33.489Z,17.00
2023-05-05T20:19:03.636Z,17.00
2023-05-05T20:21:32.550Z,16.90
2023-05-05T20:24:01.103Z,16.80
2023-05-05T20:26:29.662Z,16.80
2023-05-05T20:28:58.085Z,16.80
2023-05-05T20:31:26.583Z,16.80
2023-05-05T20:33:55.128Z,16.70
2023-05-05T20:36:26.273Z,16.60
2023-05-05T20:38:54.824Z,16.60
2023-05-05T20:41:23.290Z,16.50
2023-05-05T20:43:51.728Z,16.50
2023-05-05T20:46:20.292Z,16.40
2023-05-05T20:48:48.694Z,16.30
2023-05-05T20:51:17.094Z,16.30
2023-05-05T20:53:46.837Z,16.30
2023-05-05T20:56:15.336Z,16.30
2023-05-05T20:58:44.010Z,16.20
2023-05-05T21:01:13.165Z,16.10
2023-05-05T21:03:41.600Z,16.10
2023-05-05T21:06:10.047Z,16.10
2023-05-05T21:08:39.527Z,16.00
2023-05-05T21:11:11.407Z,16.00
2023-05-05T21:13:40.018Z,16.00
2023-05-05T21:16:08.571Z,15.90
2023-05-05T21:18:37.044Z,15.80
2023-05-05T21:21:05.584Z,15.80
2023-05-05T21:23:34.043Z,15.70
2023-05-05T21:26:04.067Z,15.70
2023-05-05T21:28:33.861Z,15.60
2023-05-05T21:31:20.629Z,15.60
2023-05-05T21:33:50.540Z,15.60
2023-05-05T21:36:19.554Z,15.60
2023-05-05T21:38:48.211Z,15.50
2023-05-05T21:41:16.740Z,15.40
2023-05-05T21:43:46.461Z,15.40
2023-05-05T21:46:17.136Z,15.30
2023-05-05T21:48:47.321Z,15.30
2023-05-05T21:51:15.959Z,15.20
2023-05-05T21:53:44.432Z,15.20
2023-05-05T21:56:13.130Z,15.20
2023-05-05T21:58:42.150Z,15.20
2023-05-05T22:01:13.020Z,15.20
2023-05-05T22:03:43.621Z,15.20
2023-05-05T22:06:12.519Z,15.20
2023-05-05T22:08:41.033Z,15.20
2023-05-05T22:11:09.560Z,15.10
2023-05-05T22:13:38.988Z,15.10
2023-05-05T22:16:07.753Z,15.00
2023-05-05T22:18:37.895Z,15.00
2023-05-05T22:21:06.557Z,15.10
2023-05-05T22:23:35.093Z,15.10
2023-05-05T22:26:04.667Z,15.10
2023-05-05T22:28:33.115Z,15.10
2023-05-05T22:31:01.722Z,15.20
2023-05-05T22:33:30.233Z,15.10
2023-05-05T22:35:59.851Z,15.10
2023-05-05T22:38:28.810Z,15.00
2023-05-05T22:40:57.218Z,15.10
2023-05-05T22:43:25.507Z,15.00
2023-05-05T22:45:54.788Z,15.10
2023-05-05T22:48:23.168Z,15.00
2023-05-05T22:50:51.589Z,15.00
2023-05-05T22:53:21.530Z,15.00
2023-05-05T22:55:51.613Z,14.90
2023-05-05T22:58:20.985Z,14.90
2023-05-05T23:00:49.457Z,14.90
2023-05-05T23:03:17.893Z,14.90
2023-05-05T23:05:46.341Z,14.80
2023-05-05T23:08:14.773Z,14.80
2023-05-05T23:10:44.387Z,14.90
2023-05-05T23:13:12.825Z,14.80
2023-05-05T23:15:42.032Z,14.80
2023-05-05T23:18:11.032Z,14.80
2023-05-05T23:20:39.414Z,14.70
2023-05-05T23:23:07.974Z,14.70
2023-05-05T23:25:36.382Z,14.70
2023-05-05T23:28:06.348Z,14.70
2023-05-05T23:30:34.915Z,14.70
2023-05-05T23:33:05.330Z,14.60
2023-05-05T23:35:39.343Z,14.50
2023-05-05T23:38:08.026Z,14.50
2023-05-05T23:40:36.459Z,14.50
2023-05-05T23:43:06.405Z,14.50
2023-05-05T23:45:34.877Z,14.40
2023-05-05T23:48:03.346Z,14.40
2023-05-05T23:50:31.887Z,14.40
2023-05-05T23:53:00.267Z,14.30
2023-05-05T23:55:28.682Z,14.30
2023-05-05T23:57:57.240Z,14.20
